createdAt,value
2019-03-31T00:02:19.501Z,14.80
2019-03-31T00:04:52.118Z,14.70
2019-03-31T00:07:24.662Z,14.70
2019-03-31T00:09:57.234Z,14.60
2019-03-31T00:12:29.793Z,14.60
2019-03-31T00:15:02.466Z,14.50
2019-03-31T00:17:35.236Z,14.50
2019-03-31T00:20:08.181Z,14.50
2019-03-31T00:22:40.702Z,14.40
2019-03-31T00:25:13.951Z,14.40
2019-03-31T00:27:46.471Z,14.40
2019-03-31T00:30:18.974Z,14.40
2019-03-31T00:32:51.581Z,14.30
2019-03-31T00:35:24.142Z,14.30
2019-03-31T00:37:56.633Z,14.20
2019-03-31T00:40:29.166Z,14.20
2019-03-31T00:43:01.703Z,14.20
2019-03-31T00:45:34.190Z,14.10
2019-03-31T00:48:06.827Z,14.10
2019-03-31T00:50:40.571Z,14.10
2019-03-31T00:53:13.144Z,14.10
2019-03-31T00:55:45.637Z,14.00
2019-03-31T00:58:18.196Z,14.00
2019-03-31T01:01:08.887Z,14.00
2019-03-31T01:03:42.169Z,14.00
2019-03-31T01:06:17.554Z,13.90
2019-03-31T01:08:50.151Z,14.00
2019-03-31T01:11:27.662Z,14.00
2019-03-31T01:14:00.479Z,13.80
2019-03-31T01:16:34.777Z,14.00
2019-03-31T01:19:07.469Z,14.00
2019-03-31T01:21:40.072Z,14.00
2019-03-31T01:24:12.985Z,14.10
2019-03-31T01:26:45.497Z,14.10
2019-03-31T01:29:18.651Z,14.10
2019-03-31T01:31:51.335Z,14.20
2019-03-31T01:34:24.005Z,14.20
2019-03-31T01:36:56.533Z,14.20
2019-03-31T01:39:29.781Z,14.30
2019-03-31T01:42:02.760Z,14.30
2019-03-31T01:44:35.363Z,14.30
2019-03-31T01:47:08.325Z,14.40
2019-03-31T01:49:40.928Z,14.40
2019-03-31T01:52:13.490Z,14.40
2019-03-31T01:54:46.014Z,14.50
2019-03-31T01:57:18.566Z,14.50
2019-03-31T01:59:51.117Z,14.50
2019-03-31T02:02:28.570Z,14.50
2019-03-31T02:05:01.108Z,14.50
2019-03-31T02:07:33.640Z,14.50
2019-03-31T02:10:07.118Z,14.50
2019-03-31T02:12:39.638Z,14.50
2019-03-31T02:15:12.291Z,14.50
2019-03-31T02:17:44.779Z,14.50
2019-03-31T02:20:17.314Z,14.40
2019-03-31T02:22:49.970Z,14.40
2019-03-31T02:25:22.495Z,14.40
2019-03-31T02:27:55.007Z,14.40
2019-03-31T02:30:28.740Z,14.40
2019-03-31T02:33:01.233Z,14.40
2019-03-31T02:35:33.782Z,14.40
2019-03-31T02:38:06.310Z,14.40
2019-03-31T02:40:38.807Z,14.40
2019-03-31T02:43:11.332Z,14.40
2019-03-31T02:45:43.827Z,14.40
2019-03-31T02:48:16.388Z,14.30
2019-03-31T02:50:51.390Z,14.30
2019-03-31T02:53:24.121Z,14.30
2019-03-31T02:55:58.272Z,14.30
2019-03-31T02:58:32.160Z,14.20
2019-03-31T03:01:05.174Z,14.20
2019-03-31T03:03:40.974Z,14.20
2019-03-31T03:06:15.864Z,14.20
2019-03-31T03:08:52.032Z,14.10
2019-03-31T03:11:27.702Z,14.10
2019-03-31T03:14:03.490Z,14.10
2019-03-31T03:16:35.971Z,14.10
2019-03-31T03:19:08.502Z,14.10
2019-03-31T03:21:40.940Z,14.10
2019-03-31T03:24:13.431Z,14.10
2019-03-31T03:26:45.935Z,14.10
2019-03-31T03:29:18.531Z,14.10
2019-03-31T03:31:51.199Z,14.10
2019-03-31T03:34:23.870Z,14.10
2019-03-31T03:36:56.377Z,14.00
2019-03-31T03:39:28.906Z,14.00
2019-03-31T03:42:01.435Z,14.00
2019-03-31T03:44:33.999Z,13.90
2019-03-31T03:47:06.531Z,13.90
2019-03-31T03:49:39.149Z,13.90
2019-03-31T03:52:11.592Z,13.90
2019-03-31T03:54:44.177Z,13.90
2019-03-31T03:57:16.775Z,13.90
2019-03-31T03:59:49.336Z,13.90
2019-03-31T04:02:21.800Z,13.80
2019-03-31T04:04:54.308Z,13.80
2019-03-31T04:07:26.811Z,13.80
2019-03-31T04:09:59.306Z,13.80
2019-03-31T04:12:31.825Z,13.80
2019-03-31T04:15:04.456Z,13.80
2019-03-31T04:17:36.989Z,13.80
2019-03-31T04:20:09.467Z,13.70
2019-03-31T04:22:42.031Z,13.70
2019-03-31T04:25:14.487Z,13.70
2019-03-31T04:27:47.021Z,13.70
2019-03-31T04:30:19.565Z,13.70
2019-03-31T04:32:52.171Z,13.70
2019-03-31T04:35:24.658Z,13.70
2019-03-31T04:37:57.123Z,13.60
2019-03-31T04:40:29.757Z,13.60
2019-03-31T04:43:02.298Z,13.60
2019-03-31T04:45:34.821Z,13.60
2019-03-31T04:48:07.320Z,13.50
2019-03-31T04:50:39.826Z,13.50
2019-03-31T04:53:12.353Z,13.50
2019-03-31T04:55:44.828Z,13.40
2019-03-31T04:58:17.314Z,13.40
2019-03-31T05:00:49.950Z,13.40
2019-03-31T05:03:22.426Z,13.40
2019-03-31T05:05:54.930Z,13.30
2019-03-31T05:08:27.432Z,13.30
2019-03-31T05:10:59.948Z,13.30
2019-03-31T05:13:33.647Z,13.30
2019-03-31T05:16:06.153Z,13.40
2019-03-31T05:18:38.668Z,13.30
2019-03-31T05:21:11.120Z,13.30
2019-03-31T05:23:43.611Z,13.30
2019-03-31T05:26:16.103Z,13.30
2019-03-31T05:28:48.626Z,13.30
2019-03-31T05:31:21.085Z,13.30
2019-03-31T05:33:53.568Z,13.30
2019-03-31T05:36:26.097Z,13.30
2019-03-31T05:38:58.675Z,13.30
2019-03-31T05:41:31.167Z,13.30
2019-03-31T05:44:05.849Z,13.30
2019-03-31T05:46:37.863Z,13.30
2019-03-31T05:49:10.485Z,13.30
2019-03-31T05:51:42.956Z,13.30
2019-03-31T05:54:15.475Z,13.30
2019-03-31T05:56:47.990Z,13.30
2019-03-31T05:59:20.461Z,13.30
2019-03-31T06:01:52.953Z,13.30
2019-03-31T06:04:33.020Z,13.30
2019-03-31T06:06:59.656Z,13.40
2019-03-31T06:09:32.136Z,13.30
2019-03-31T06:12:04.825Z,13.40
2019-03-31T06:14:37.313Z,13.40
2019-03-31T06:17:09.878Z,13.40
2019-03-31T06:19:42.348Z,13.50
2019-03-31T06:22:14.954Z,13.50
2019-03-31T06:24:47.618Z,13.50
2019-03-31T06:27:21.507Z,13.50
2019-03-31T06:29:54.005Z,13.50
2019-03-31T06:32:26.470Z,13.50
2019-03-31T06:34:58.981Z,13.50
2019-03-31T06:37:31.438Z,13.50
2019-03-31T06:40:04.221Z,13.40
2019-03-31T06:42:36.710Z,13.40
2019-03-31T06:45:09.838Z,13.40
2019-03-31T06:47:42.365Z,13.40
2019-03-31T06:50:15.044Z,13.40
2019-03-31T06:52:47.605Z,13.30
2019-03-31T06:55:20.108Z,13.30
2019-03-31T06:57:52.632Z,13.30
2019-03-31T07:00:25.241Z,13.00
2019-03-31T07:02:57.732Z,13.20
2019-03-31T07:05:30.219Z,13.10
2019-03-31T07:08:02.729Z,13.10
2019-03-31T07:10:35.402Z,13.10
2019-03-31T07:13:07.953Z,13.10
2019-03-31T07:15:40.454Z,13.00
2019-03-31T07:18:15.913Z,12.90
2019-03-31T07:20:47.199Z,13.00
2019-03-31T07:23:19.810Z,12.90
2019-03-31T07:25:52.376Z,12.80
2019-03-31T07:28:24.925Z,12.60
2019-03-31T07:30:59.363Z,12.70
2019-03-31T07:33:31.695Z,12.60
2019-03-31T07:36:04.574Z,12.60
2019-03-31T07:38:39.137Z,12.60
2019-03-31T07:41:13.083Z,12.50
2019-03-31T07:43:45.565Z,12.50
2019-03-31T07:46:18.093Z,12.50
2019-03-31T07:48:50.737Z,12.40
2019-03-31T07:51:23.252Z,12.40
2019-03-31T07:53:55.826Z,12.40
2019-03-31T07:56:28.336Z,12.40
2019-03-31T07:59:00.874Z,12.30
2019-03-31T08:01:33.427Z,12.30
2019-03-31T08:04:12.172Z,12.30
2019-03-31T08:06:44.743Z,12.30
2019-03-31T08:09:17.260Z,12.30
2019-03-31T08:11:49.751Z,12.30
2019-03-31T08:14:22.324Z,12.30
2019-03-31T08:16:54.863Z,12.30
2019-03-31T08:19:27.459Z,12.30
2019-03-31T08:22:00.000Z,12.20
2019-03-31T08:24:43.080Z,12.20
2019-03-31T08:27:17.181Z,12.20
2019-03-31T08:29:59.872Z,12.20
2019-03-31T08:32:23.909Z,12.20
2019-03-31T08:34:56.549Z,12.30
2019-03-31T08:37:29.075Z,12.20
2019-03-31T08:40:01.619Z,12.20
2019-03-31T08:42:35.144Z,12.20
2019-03-31T08:45:08.688Z,12.20
2019-03-31T08:47:41.237Z,12.20
2019-03-31T08:50:14.477Z,12.20
2019-03-31T08:52:47.065Z,12.20
2019-03-31T08:55:19.758Z,12.20
2019-03-31T08:57:52.337Z,12.10
2019-03-31T09:00:56.006Z,12.10
2019-03-31T09:03:28.493Z,12.10
2019-03-31T09:06:02.577Z,12.10
2019-03-31T09:08:35.330Z,12.20
2019-03-31T09:11:07.859Z,12.20
2019-03-31T09:13:40.382Z,12.20
2019-03-31T09:16:13.087Z,12.20
2019-03-31T09:18:46.948Z,12.30
2019-03-31T09:21:19.450Z,12.30
2019-03-31T09:23:51.993Z,12.40
2019-03-31T09:26:24.596Z,12.40
2019-03-31T09:28:57.154Z,12.50
2019-03-31T09:31:29.708Z,12.50
2019-03-31T09:34:02.279Z,12.50
2019-03-31T09:36:34.845Z,12.60
2019-03-31T09:39:08.118Z,12.70
2019-03-31T09:41:40.755Z,12.70
2019-03-31T09:44:13.328Z,12.80
2019-03-31T09:46:45.860Z,12.90
2019-03-31T09:49:18.461Z,12.90
2019-03-31T09:51:50.973Z,13.00
2019-03-31T09:54:23.569Z,13.10
2019-03-31T09:56:56.223Z,13.20
2019-03-31T09:59:28.777Z,13.20
2019-03-31T10:02:01.722Z,13.30
2019-03-31T10:04:34.294Z,13.30
2019-03-31T10:07:07.622Z,13.40
2019-03-31T10:09:40.228Z,13.50
2019-03-31T10:12:12.949Z,13.60
2019-03-31T10:14:46.751Z,13.60
2019-03-31T10:17:19.413Z,13.70
2019-03-31T10:19:51.929Z,13.80
2019-03-31T10:22:24.514Z,13.90
2019-03-31T10:24:57.047Z,13.90
2019-03-31T10:27:29.710Z,14.00
2019-03-31T10:30:02.518Z,14.10
2019-03-31T10:32:36.485Z,14.20
2019-03-31T10:35:09.650Z,14.30
2019-03-31T10:37:42.239Z,14.40
2019-03-31T10:40:14.910Z,14.60
2019-03-31T10:42:47.508Z,14.70
2019-03-31T10:45:20.162Z,14.80
2019-03-31T10:47:52.702Z,14.90
2019-03-31T10:50:25.447Z,14.90
2019-03-31T10:52:57.996Z,15.10
2019-03-31T10:55:30.505Z,15.20
2019-03-31T10:58:03.149Z,15.30
2019-03-31T11:00:37.392Z,15.40
2019-03-31T11:03:10.633Z,15.60
2019-03-31T11:05:43.299Z,15.70
2019-03-31T11:08:15.846Z,16.10
2019-03-31T11:10:48.402Z,16.40
2019-03-31T11:13:20.982Z,16.80
2019-03-31T11:15:53.659Z,17.20
2019-03-31T11:18:26.239Z,17.50
2019-03-31T11:21:22.169Z,17.70
2019-03-31T11:23:54.689Z,18.00
2019-03-31T11:26:27.319Z,18.30
2019-03-31T11:28:59.933Z,18.60
2019-03-31T11:31:32.497Z,18.90
2019-03-31T11:34:04.993Z,19.20
2019-03-31T11:36:37.598Z,19.60
2019-03-31T11:39:16.119Z,19.90
2019-03-31T11:41:47.012Z,20.20
2019-03-31T11:44:19.569Z,20.50
2019-03-31T11:46:52.274Z,20.90
2019-03-31T11:49:24.830Z,21.20
2019-03-31T11:51:57.416Z,21.60
2019-03-31T11:54:30.005Z,22.00
2019-03-31T11:57:02.642Z,22.30
2019-03-31T11:59:35.284Z,22.70
2019-03-31T12:02:07.891Z,23.00
2019-03-31T12:04:40.422Z,23.40
2019-03-31T12:07:26.994Z,23.70
2019-03-31T12:09:47.938Z,24.00
2019-03-31T12:12:21.087Z,24.30
2019-03-31T12:15:00.199Z,24.50
2019-03-31T12:17:29.045Z,24.80
2019-03-31T12:20:01.589Z,25.00
2019-03-31T12:22:34.168Z,25.20
2019-03-31T12:25:07.578Z,25.40
2019-03-31T12:27:40.165Z,25.50
2019-03-31T12:30:12.997Z,25.70
2019-03-31T12:32:45.614Z,25.90
2019-03-31T12:35:18.114Z,26.00
2019-03-31T12:37:50.713Z,26.20
2019-03-31T12:40:42.746Z,26.30
2019-03-31T12:43:15.786Z,26.40
2019-03-31T12:45:48.907Z,26.60
2019-03-31T12:48:22.043Z,26.70
2019-03-31T12:50:55.166Z,26.70
2019-03-31T12:53:28.341Z,26.70
2019-03-31T12:56:01.117Z,26.80
2019-03-31T12:58:34.552Z,26.80
2019-03-31T13:01:07.810Z,26.80
2019-03-31T13:03:40.947Z,26.90
2019-03-31T13:06:16.041Z,26.80
2019-03-31T13:08:49.153Z,26.80
2019-03-31T13:11:23.530Z,26.80
2019-03-31T13:13:56.124Z,26.80
2019-03-31T13:16:29.244Z,26.80
2019-03-31T13:19:03.640Z,26.70
2019-03-31T13:21:37.621Z,26.50
2019-03-31T13:24:10.784Z,26.30
2019-03-31T13:26:44.018Z,25.90
2019-03-31T13:29:16.581Z,25.40
2019-03-31T13:31:49.662Z,25.10
2019-03-31T13:34:22.807Z,24.90
2019-03-31T13:36:55.352Z,24.80
2019-03-31T13:39:27.933Z,24.70
2019-03-31T13:42:00.548Z,24.20
2019-03-31T13:44:33.644Z,24.50
2019-03-31T13:47:06.404Z,24.40
2019-03-31T13:49:38.994Z,24.20
2019-03-31T13:52:11.562Z,24.00
2019-03-31T13:54:44.124Z,23.80
2019-03-31T13:57:16.975Z,23.60
2019-03-31T13:59:49.923Z,23.40
2019-03-31T14:02:22.566Z,23.20
2019-03-31T14:04:55.106Z,22.90
2019-03-31T14:07:27.689Z,22.70
2019-03-31T14:10:00.477Z,22.30
2019-03-31T14:12:33.169Z,22.00
2019-03-31T14:15:18.364Z,21.80
2019-03-31T14:17:40.886Z,21.60
2019-03-31T14:20:13.495Z,21.40
2019-03-31T14:22:47.374Z,21.30
2019-03-31T14:25:20.183Z,21.20
2019-03-31T14:27:53.830Z,21.10
2019-03-31T14:30:26.722Z,21.00
2019-03-31T14:32:59.427Z,21.00
2019-03-31T14:35:31.995Z,20.90
2019-03-31T14:38:05.797Z,20.90
2019-03-31T14:40:38.444Z,20.90
2019-03-31T14:43:11.140Z,20.90
2019-03-31T14:45:43.765Z,20.90
2019-03-31T14:48:17.975Z,20.90
2019-03-31T14:50:50.680Z,20.80
2019-03-31T14:53:23.364Z,20.80
2019-03-31T14:55:55.989Z,20.80
2019-03-31T14:58:28.756Z,20.80
2019-03-31T15:01:01.401Z,20.80
2019-03-31T15:03:33.976Z,20.80
2019-03-31T15:06:07.044Z,20.80
2019-03-31T15:08:53.471Z,20.80
2019-03-31T15:11:15.460Z,20.70
2019-03-31T15:13:48.063Z,20.60
2019-03-31T15:16:20.627Z,20.40
2019-03-31T15:18:53.317Z,20.30
2019-03-31T15:21:26.046Z,20.10
2019-03-31T15:23:58.630Z,20.00
2019-03-31T15:26:31.218Z,19.90
2019-03-31T15:29:03.966Z,19.80
2019-03-31T15:31:36.539Z,19.70
2019-03-31T15:34:09.258Z,19.60
2019-03-31T15:36:42.044Z,19.40
2019-03-31T15:39:17.988Z,19.20
2019-03-31T15:41:50.673Z,19.00
2019-03-31T15:44:23.308Z,18.80
2019-03-31T15:46:55.910Z,18.70
2019-03-31T15:49:28.571Z,18.50
2019-03-31T15:52:01.237Z,18.30
2019-03-31T15:54:33.959Z,18.10
2019-03-31T15:57:06.626Z,18.00
2019-03-31T15:59:49.803Z,17.80
2019-03-31T16:02:25.097Z,17.60
2019-03-31T16:04:57.672Z,17.50
2019-03-31T16:07:30.398Z,17.30
2019-03-31T16:12:34.852Z,17.20
2019-03-31T16:15:07.798Z,17.10
2019-03-31T16:17:39.622Z,16.90
2019-03-31T16:20:12.162Z,16.80
2019-03-31T16:22:45.216Z,16.80
2019-03-31T16:25:40.760Z,16.80
2019-03-31T16:28:12.631Z,16.80
2019-03-31T16:30:44.650Z,16.70
2019-03-31T16:33:16.374Z,16.70
2019-03-31T16:35:48.213Z,16.60
2019-03-31T16:38:21.451Z,16.60
2019-03-31T16:40:53.341Z,16.50
2019-03-31T16:43:25.336Z,16.50
2019-03-31T16:45:57.200Z,16.50
2019-03-31T16:48:29.127Z,16.50
2019-03-31T16:51:02.234Z,16.50
2019-03-31T16:53:35.145Z,16.50
2019-03-31T16:56:06.997Z,16.40
2019-03-31T16:58:38.743Z,16.30
2019-03-31T17:01:10.481Z,16.20
2019-03-31T17:03:42.220Z,16.10
2019-03-31T17:06:14.118Z,16.10
2019-03-31T17:08:45.980Z,16.00
2019-03-31T17:11:17.696Z,15.90
2019-03-31T17:13:49.636Z,15.90
2019-03-31T17:16:21.575Z,15.80
2019-03-31T17:18:53.472Z,15.80
2019-03-31T17:21:25.525Z,15.70
2019-03-31T17:23:57.428Z,15.70
2019-03-31T17:26:29.256Z,15.60
2019-03-31T17:29:01.205Z,15.60
2019-03-31T17:31:33.594Z,15.50
2019-03-31T17:34:05.491Z,15.50
2019-03-31T17:36:37.253Z,15.40
2019-03-31T17:39:09.940Z,15.40
2019-03-31T17:41:41.817Z,15.30
2019-03-31T17:44:13.707Z,15.30
2019-03-31T17:46:47.492Z,15.20
2019-03-31T17:49:19.412Z,15.10
2019-03-31T17:51:51.258Z,15.10
2019-03-31T17:54:23.144Z,15.00
2019-03-31T17:56:55.094Z,15.00
2019-03-31T17:59:26.871Z,14.90
2019-03-31T18:01:58.629Z,14.90
2019-03-31T18:04:30.469Z,14.80
2019-03-31T18:07:02.231Z,14.70
2019-03-31T18:09:33.951Z,14.70
2019-03-31T18:12:05.993Z,14.60
2019-03-31T18:14:39.709Z,14.60
2019-03-31T18:17:12.909Z,14.50
2019-03-31T18:19:44.780Z,14.50
2019-03-31T18:22:17.220Z,14.40
2019-03-31T18:24:49.016Z,14.40
2019-03-31T18:27:20.848Z,14.30
2019-03-31T18:29:52.559Z,14.30
2019-03-31T18:32:24.394Z,14.20
2019-03-31T18:34:57.172Z,14.20
2019-03-31T18:37:28.969Z,14.10
2019-03-31T18:40:00.897Z,14.10
2019-03-31T18:42:32.932Z,14.10
2019-03-31T18:45:05.524Z,14.00
2019-03-31T18:47:38.531Z,13.90
2019-03-31T18:50:10.545Z,13.90
2019-03-31T18:52:42.412Z,13.90
2019-03-31T18:55:24.637Z,13.90
2019-03-31T18:58:21.124Z,13.90
2019-03-31T19:01:09.593Z,13.90
2019-03-31T19:04:06.394Z,13.80
2019-03-31T19:06:53.866Z,13.70
2019-03-31T19:09:42.607Z,13.70
2019-03-31T19:12:33.717Z,13.70
2019-03-31T19:15:27.905Z,13.60
2019-03-31T19:18:24.581Z,13.60
2019-03-31T19:21:27.515Z,13.50
2019-03-31T19:24:17.087Z,13.50
2019-03-31T19:27:06.537Z,13.40
2019-03-31T19:29:58.405Z,13.40
2019-03-31T19:33:01.594Z,13.30
2019-03-31T19:36:01.323Z,13.20
2019-03-31T19:38:54.822Z,13.20
2019-03-31T19:41:45.470Z,13.10
2019-03-31T19:44:41.835Z,13.10
2019-03-31T19:47:23.161Z,13.00
2019-03-31T19:50:19.878Z,13.00
2019-03-31T19:53:10.070Z,13.00
2019-03-31T19:56:06.920Z,12.90
2019-03-31T19:58:46.177Z,12.90
2019-03-31T20:01:39.810Z,12.80
2019-03-31T20:04:29.349Z,12.80
2019-03-31T20:07:19.764Z,12.70
2019-03-31T20:09:57.444Z,12.70
2019-03-31T20:12:48.879Z,12.70
2019-03-31T20:15:35.983Z,12.60
2019-03-31T20:18:32.663Z,12.50
2019-03-31T20:21:31.076Z,12.50
2019-03-31T20:24:17.818Z,12.50
2019-03-31T20:27:11.408Z,12.40
2019-03-31T20:29:50.395Z,12.40
2019-03-31T20:32:41.202Z,12.30
2019-03-31T20:35:35.388Z,12.30
2019-03-31T20:38:12.135Z,12.30
2019-03-31T20:40:49.651Z,12.20
2019-03-31T20:43:31.983Z,12.20
2019-03-31T20:46:05.055Z,12.10
2019-03-31T20:48:36.908Z,12.10
2019-03-31T20:51:08.814Z,12.10
2019-03-31T20:53:40.844Z,12.00
2019-03-31T20:56:12.691Z,12.00
2019-03-31T20:58:44.454Z,12.00
2019-03-31T21:01:18.122Z,12.00
2019-03-31T21:03:49.976Z,11.90
2019-03-31T21:06:21.822Z,11.90
2019-03-31T21:08:53.748Z,11.90
2019-03-31T21:11:25.483Z,11.80
2019-03-31T21:13:57.439Z,11.80
2019-03-31T21:16:30.570Z,11.70
2019-03-31T21:19:02.383Z,11.70
2019-03-31T21:21:34.265Z,11.60
2019-03-31T21:24:06.075Z,11.60
2019-03-31T21:26:37.849Z,11.60
2019-03-31T21:29:09.691Z,11.50
2019-03-31T21:31:41.624Z,11.50
2019-03-31T21:34:13.349Z,11.40
2019-03-31T21:36:45.145Z,11.40
2019-03-31T21:39:16.867Z,11.30
2019-03-31T21:41:48.577Z,11.30
2019-03-31T21:44:22.098Z,11.20
2019-03-31T21:46:55.916Z,11.20
2019-03-31T21:49:27.412Z,11.10
2019-03-31T21:51:59.151Z,11.10
2019-03-31T21:54:31.996Z,11.00
2019-03-31T21:57:03.775Z,11.00
2019-03-31T21:59:35.647Z,11.00
2019-03-31T22:02:07.337Z,10.90
2019-03-31T22:04:39.128Z,10.90
2019-03-31T22:07:11.336Z,10.80
2019-03-31T22:09:43.085Z,10.80
2019-03-31T22:12:14.989Z,10.70
2019-03-31T22:14:46.709Z,10.70
2019-03-31T22:17:18.494Z,10.60
2019-03-31T22:19:50.224Z,10.60
2019-03-31T22:22:21.913Z,10.40
2019-03-31T22:24:53.801Z,10.40
2019-03-31T22:27:25.737Z,10.30
2019-03-31T22:29:57.515Z,10.30
2019-03-31T22:32:29.280Z,10.20
2019-03-31T22:35:00.991Z,10.10
2019-03-31T22:37:32.838Z,10.10
2019-03-31T22:40:04.557Z,10.00
2019-03-31T22:42:36.380Z,10.00
2019-03-31T22:45:08.269Z,9.90
2019-03-31T22:47:40.048Z,9.80
2019-03-31T22:50:11.829Z,9.80
2019-03-31T22:52:43.650Z,9.70
2019-03-31T22:55:15.351Z,9.60
2019-03-31T22:57:47.066Z,9.60
2019-03-31T23:00:23.419Z,9.60
2019-03-31T23:02:55.161Z,9.50
2019-03-31T23:05:26.941Z,9.50
2019-03-31T23:08:02.371Z,9.50
2019-03-31T23:10:34.322Z,9.40
2019-03-31T23:13:07.175Z,9.30
2019-03-31T23:15:38.895Z,9.30
2019-03-31T23:18:10.675Z,9.30
2019-03-31T23:20:43.953Z,9.30
2019-03-31T23:23:18.810Z,9.20
2019-03-31T23:25:50.524Z,9.20
2019-03-31T23:28:22.207Z,9.20
2019-03-31T23:30:55.727Z,9.10
2019-03-31T23:33:27.419Z,9.10
2019-03-31T23:35:59.103Z,9.00
2019-03-31T23:38:30.921Z,9.00
2019-03-31T23:41:02.745Z,9.00
2019-03-31T23:43:34.414Z,9.00
2019-03-31T23:46:06.171Z,8.90
2019-03-31T23:48:37.913Z,8.90
2019-03-31T23:51:09.657Z,8.80
2019-03-31T23:53:41.503Z,8.80
2019-03-31T23:56:13.403Z,8.80
2019-03-31T23:58:45.182Z,8.70
